Terminal Aerodrome Forecast
Issued by NWS

Home | Current Version | Previous Version | Text Only | Print | Product List | Glossary On
Versions: 1 2 3 4 5 6 7 8 9 10 11 12 13 14 15 16 17
000
FTUS43 KBIS 181700
TAFJMS
TAF
KJMS 181724Z 1818/1918 14009KT P6SM BKN110
     FM190200 23009KT P6SM OVC090
     FM190400 28014G22KT P6SM OVC080
     FM190500 33017G25KT 5SM -SHRA OVC040
     FM190900 32019G30KT 4SM -RA BR OVC020=

USA.gov is the U.S. government's official web portal to all federal, state and local government web resources and services.